Time;durP1;ratioP1;P1;durP2;ratioP2;P2;SDS_P1;SDS_P2;PMS_P1;PMS_P2;Temp;Humidity;BMP_temperature;BMP_pressure;BME280_temperature;BME280_humidity;BME280_pressure;Samples;Min_cycle;Max_cycle;Signal;HPM_P1;HPM_P2
2022/07/31 00:01:32;;;;;;;9.70;8.08;;;;;;;18.12;67.50;100868.94;1614869;87;20952;-76
2022/07/31 00:03:58;;;;;;;12.13;8.13;;;;;;;18.06;67.56;100863.13;1615009;87;20976;-76
2022/07/31 00:06:25;;;;;;;12.15;7.50;;;;;;;18.04;67.62;100864.50;1626458;87;20971;-76
2022/07/31 00:08:51;;;;;;;9.15;7.42;;;;;;;18.06;67.68;100864.43;1626546;87;21525;-76
2022/07/31 00:11:18;;;;;;;9.15;7.62;;;;;;;18.06;67.68;100863.13;1626012;87;20926;-76
2022/07/31 00:13:44;;;;;;;9.90;7.25;;;;;;;18.04;67.69;100871.49;1632087;87;20985;-76
2022/07/31 00:16:11;;;;;;;14.30;7.72;;;;;;;18.01;67.74;100867.70;1612264;88;21564;-76
2022/07/31 00:18:37;;;;;;;11.38;7.58;;;;;;;18.01;67.78;100868.55;1612551;87;21085;-76
2022/07/31 00:21:04;;;;;;;12.33;8.35;;;;;;;18.00;67.82;100870.77;1612543;87;21133;-76
2022/07/31 00:23:30;;;;;;;9.40;7.15;;;;;;;17.99;67.85;100866.45;1633802;87;21066;-76
2022/07/31 00:25:57;;;;;;;8.45;7.65;;;;;;;17.97;67.87;100868.74;1631970;87;21026;-76
2022/07/31 00:28:24;;;;;;;13.22;7.80;;;;;;;17.95;67.92;100871.88;1575695;89;22219;-76
2022/07/31 00:30:50;;;;;;;11.03;7.33;;;;;;;17.94;67.97;100867.56;1612541;88;21563;-76
2022/07/31 00:33:17;;;;;;;10.35;7.58;;;;;;;17.93;67.98;100871.09;1616861;87;21192;-76
2022/07/31 00:35:44;;;;;;;10.70;6.80;;;;;;;17.92;68.02;100874.17;1615945;87;21683;-76
2022/07/31 00:38:10;;;;;;;8.60;7.37;;;;;;;17.91;68.03;100876.85;1585752;88;21114;-76
2022/07/31 00:40:40;;;;;;;8.98;7.10;;;;;;;17.88;68.07;100878.28;1582859;89;21119;-76
2022/07/31 00:43:07;;;;;;;9.83;7.05;;;;;;;17.85;68.10;100874.88;1616714;87;21067;-76
2022/07/31 00:45:33;;;;;;;8.05;7.12;;;;;;;17.83;68.12;100878.48;1628809;87;21003;-76
2022/07/31 00:48:02;;;;;;;8.38;7.22;;;;;;;17.81;68.18;100875.92;1620872;87;21092;-76
2022/07/31 00:50:28;;;;;;;11.38;7.65;;;;;;;17.81;68.21;100870.70;1639032;87;21084;-77
2022/07/31 00:52:56;;;;;;;10.13;7.80;;;;;;;17.79;68.21;100869.91;1622062;87;21441;-76
2022/07/31 00:55:22;;;;;;;12.50;7.28;;;;;;;17.79;68.27;100873.83;1633395;87;21136;-76
2022/07/31 00:57:49;;;;;;;11.95;7.62;;;;;;;17.77;68.30;100876.97;1637805;87;21132;-76
2022/07/31 01:00:17;;;;;;;9.50;7.35;;;;;;;17.75;68.29;100871.41;1612904;87;21096;-76
2022/07/31 01:02:43;;;;;;;7.30;6.50;;;;;;;17.72;68.37;100877.61;1615849;87;21058;-76
2022/07/31 01:05:10;;;;;;;9.35;7.40;;;;;;;17.72;68.38;100869.77;1637693;87;21025;-77
2022/07/31 01:07:36;;;;;;;10.82;7.42;;;;;;;17.73;68.41;100872.77;1612736;87;21091;-77
2022/07/31 01:10:07;;;;;;;9.40;7.70;;;;;;;17.73;68.41;100865.39;1634643;87;21045;-77
2022/07/31 01:12:54;;;;;;;8.58;7.15;;;;;;;17.72;68.43;100869.77;1609179;87;21403;-76
2022/07/31 01:15:25;;;;;;;9.08;7.78;;;;;;;17.71;68.46;100867.22;1606192;87;21753;-76
2022/07/31 01:17:53;;;;;;;9.63;7.33;;;;;;;17.69;68.48;100867.73;1617030;87;21473;-76
2022/07/31 01:20:23;;;;;;;8.78;6.85;;;;;;;17.66;68.52;100866.59;1613035;88;21071;-76
2022/07/31 01:23:28;;;;;;;8.10;6.80;;;;;;;17.63;68.49;100864.91;1612965;87;21118;-76
2022/07/31 01:26:05;;;;;;;9.35;5.90;;;;;;;17.60;68.56;100867.66;1541418;92;21144;-76
2022/07/31 01:29:09;;;;;;;9.08;6.60;;;;;;;17.58;68.58;100872.55;1576017;90;21123;-76
2022/07/31 01:31:45;;;;;;;9.40;6.33;;;;;;;17.56;68.62;100866.53;1521073;92;21727;-76
2022/07/31 01:34:28;;;;;;;8.45;6.30;;;;;;;17.53;68.62;100869.67;1532708;93;21154;-76
2022/07/31 01:37:03;;;;;;;8.35;5.87;;;;;;;17.51;68.64;100870.64;1519951;91;21730;-76
2022/07/31 01:39:33;;;;;;;12.33;6.30;;;;;;;17.47;68.69;100870.37;1562226;90;21163;-76
2022/07/31 01:42:04;;;;;;;7.03;5.83;;;;;;;17.45;68.72;100863.05;1561280;89;21585;-76
2022/07/31 01:44:35;;;;;;;9.73;5.67;;;;;;;17.44;68.73;100862.65;1555321;89;21112;-76
2022/07/31 01:47:02;;;;;;;10.15;5.90;;;;;;;17.40;68.76;100855.84;1566771;89;21062;-76
2022/07/31 01:49:30;;;;;;;10.48;6.40;;;;;;;17.40;68.78;100864.53;1552382;91;20949;-76
2022/07/31 01:51:58;;;;;;;9.65;5.72;;;;;;;17.40;68.83;100858.00;1529399;91;21606;-76
2022/07/31 01:54:27;;;;;;;6.85;5.25;;;;;;;17.40;68.84;100860.61;1544983;92;21854;-76
2022/07/31 01:56:58;;;;;;;10.82;5.65;;;;;;;17.39;68.83;100859.37;1571462;88;20975;-76
2022/07/31 01:59:25;;;;;;;7.55;5.17;;;;;;;17.37;68.90;100852.05;1610965;88;21560;-76
2022/07/31 02:01:52;;;;;;;5.75;4.78;;;;;;;17.36;68.92;100854.27;1604647;89;21527;-76
2022/07/31 02:04:20;;;;;;;8.63;5.12;;;;;;;17.35;68.94;100847.33;1601181;88;20949;-76
2022/07/31 02:06:49;;;;;;;6.05;5.15;;;;;;;17.35;68.94;100840.34;1594326;88;21439;-76
2022/07/31 02:09:18;;;;;;;7.55;4.95;;;;;;;17.32;68.95;100838.30;1590884;88;20928;-76
2022/07/31 02:11:46;;;;;;;7.83;5.03;;;;;;;17.32;68.99;100835.69;1610362;87;21504;-76
2022/07/31 02:14:13;;;;;;;7.12;4.80;;;;;;;17.30;69.02;100827.91;1603626;88;20986;-76
2022/07/31 02:16:40;;;;;;;7.28;4.87;;;;;;;17.29;69.05;100827.52;1615431;87;21584;-76
2022/07/31 02:19:10;;;;;;;6.50;5.28;;;;;;;17.27;69.04;100822.81;1635563;87;21528;-76
2022/07/31 02:21:36;;;;;;;8.25;4.92;;;;;;;17.24;69.08;100817.70;1610512;87;20984;-76
2022/07/31 02:24:03;;;;;;;7.55;5.17;;;;;;;17.24;69.12;100816.86;1627683;86;21560;-76
2022/07/31 02:26:31;;;;;;;5.30;4.62;;;;;;;17.25;69.14;100817.25;1603169;89;22287;-76
2022/07/31 02:28:59;;;;;;;10.78;4.87;;;;;;;17.23;69.11;100815.16;1604803;88;21162;-76
2022/07/31 02:31:29;;;;;;;5.70;4.85;;;;;;;17.22;69.13;100814.30;1610521;87;21000;-76
2022/07/31 02:33:56;;;;;;;5.75;4.60;;;;;;;17.21;69.16;100813.91;1614723;87;21576;-76
2022/07/31 02:36:23;;;;;;;5.22;4.70;;;;;;;17.19;69.18;100810.50;1613954;87;21413;-76
2022/07/31 02:38:51;;;;;;;7.72;4.75;;;;;;;17.16;69.18;100806.25;1613147;87;21543;-76
2022/07/31 02:41:20;;;;;;;8.95;4.55;;;;;;;17.13;69.22;100803.80;1620272;87;21643;-76
2022/07/31 02:43:47;;;;;;;6.15;4.20;;;;;;;17.13;69.26;100808.16;1629195;87;21071;-76
2022/07/31 02:46:14;;;;;;;6.00;4.45;;;;;;;17.11;69.29;100803.00;1610567;87;21750;-76
2022/07/31 02:48:41;;;;;;;;;;;;;;;17.08;69.28;100800.52;1618333;87;21591;-76
2022/07/31 02:51:08;;;;;;;6.28;4.20;;;;;;;17.06;69.51;100799.72;1608540;87;20461;-76
2022/07/31 02:53:36;;;;;;;7.92;5.00;;;;;;;17.03;69.34;100798.98;1613280;87;21547;-76
2022/07/31 02:56:05;;;;;;;4.97;4.28;;;;;;;17.00;69.37;100795.19;1610703;87;21690;-76
2022/07/31 02:58:32;;;;;;;4.60;4.20;;;;;;;16.98;69.39;100792.64;1617063;87;21071;-76
2022/07/31 03:01:05;;;;;;;6.20;4.55;;;;;;;16.97;69.42;100799.23;1656908;85;21076;-76
2022/07/31 03:03:31;;;;;;;4.25;3.92;;;;;;;16.95;69.40;100791.91;1640095;86;21072;-76
2022/07/31 03:06:01;;;;;;;7.78;4.58;;;;;;;16.93;69.43;100798.95;1639815;85;21551;-76
2022/07/31 03:08:27;;;;;;;8.68;4.28;;;;;;;16.92;69.47;100794.64;1640223;87;22242;-76
2022/07/31 03:10:53;;;;;;;4.55;4.17;;;;;;;16.87;69.47;100795.67;1641078;86;21551;-76
2022/07/31 03:13:24;;;;;;;6.72;3.90;;;;;;;16.86;69.51;100787.89;1665872;86;21148;-76
2022/07/31 03:15:51;;;;;;;8.68;4.20;;;;;;;16.84;69.52;100787.95;1639368;85;21146;-77
2022/07/31 03:18:20;;;;;;;5.58;3.40;;;;;;;16.84;69.53;100783.19;1640216;87;22350;-77
2022/07/31 03:20:50;;;;;;;5.72;3.83;;;;;;;16.82;69.55;100784.55;1641836;87;21440;-77
2022/07/31 03:23:15;;;;;;;5.75;3.55;;;;;;;16.81;69.58;100785.46;1640237;86;21063;-76
2022/07/31 03:25:42;;;;;;;10.10;4.17;;;;;;;16.80;69.55;100786.37;1640101;86;21781;-76
2022/07/31 03:28:09;;;;;;;4.05;3.62;;;;;;;16.80;69.60;100786.83;1640175;87;26217;-76
2022/07/31 03:30:36;;;;;;;5.28;3.45;;;;;;;16.75;69.59;100790.07;1639591;85;21547;-76
2022/07/31 03:33:03;;;;;;;9.28;4.10;;;;;;;16.74;69.63;100790.98;1639636;87;21084;-76
2022/07/31 03:35:30;;;;;;;5.62;3.08;;;;;;;16.73;69.65;100795.80;1636554;86;22271;-76
2022/07/31 03:37:56;;;;;;;6.62;3.55;;;;;;;16.71;69.66;100795.02;1638685;87;27292;-76
2022/07/31 03:40:23;;;;;;;4.55;3.50;;;;;;;16.68;69.67;100793.83;1640895;85;21127;-76
2022/07/31 03:42:50;;;;;;;4.80;3.50;;;;;;;16.67;69.65;100797.34;1612934;85;22215;-76
2022/07/31 03:45:17;;;;;;;;;;;;;;;16.64;69.71;100802.66;1611521;89;21134;-76
2022/07/31 03:47:43;;;;;;;;;;;;;;;16.61;69.91;100803.65;1616033;87;20259;-76
2022/07/31 03:50:10;;;;;;;6.60;3.10;;;;;;;16.57;69.92;100800.76;1617639;87;20851;-76
2022/07/31 03:52:37;;;;;;;6.58;3.30;;;;;;;16.55;69.77;100802.13;1609700;87;21179;-76
2022/07/31 03:55:04;;;;;;;3.85;3.55;;;;;;;16.56;69.75;100804.28;1610252;87;21092;-76
2022/07/31 03:57:32;;;;;;;5.15;3.67;;;;;;;16.56;69.74;100804.28;1621490;87;21110;-76
2022/07/31 04:00:01;;;;;;;3.50;3.25;;;;;;;16.54;69.77;100803.03;1617094;87;21131;-76
2022/07/31 04:02:28;;;;;;;7.87;3.62;;;;;;;16.53;69.78;100803.94;1609007;89;21091;-76
2022/07/31 04:04:56;;;;;;;5.30;3.52;;;;;;;16.52;69.84;100802.69;1626167;87;21075;-76
2022/07/31 04:07:23;;;;;;;5.30;3.27;;;;;;;16.53;69.88;100801.33;1629311;86;21039;-76
2022/07/31 04:09:50;;;;;;;6.75;3.58;;;;;;;16.56;69.88;100804.28;1609638;88;21127;-76
2022/07/31 04:12:17;;;;;;;4.95;3.50;;;;;;;16.55;69.83;100802.58;1607358;89;21135;-76
2022/07/31 04:14:43;;;;;;;3.00;2.70;;;;;;;16.53;69.88;100809.16;1591508;88;21606;-76
2022/07/31 04:17:11;;;;;;;5.62;2.75;;;;;;;16.53;69.91;100805.70;1624533;87;21110;-76
2022/07/31 04:19:38;;;;;;;4.97;2.15;;;;;;;16.49;69.92;100802.80;1616927;87;21131;-76
2022/07/31 04:22:05;;;;;;;7.45;2.83;;;;;;;16.46;69.97;100799.85;1589123;87;21061;-76
2022/07/31 04:24:31;;;;;;;;;;;;;;;16.47;69.98;100801.55;1629045;87;21165;-76
2022/07/31 04:26:58;;;;;;;4.80;3.17;;;;;;;16.47;70.18;100800.25;1608286;87;21063;-76
2022/07/31 04:29:27;;;;;;;5.05;3.85;;;;;;;16.45;70.00;100796.00;1617486;87;21118;-76
2022/07/31 04:31:54;;;;;;;3.98;2.90;;;;;;;16.47;70.06;100800.70;1627635;85;21089;-76
2022/07/31 04:34:21;;;;;;;5.12;3.45;;;;;;;16.48;70.05;100801.10;1627537;87;21105;-76
2022/07/31 04:36:47;;;;;;;6.17;2.62;;;;;;;16.50;70.08;100800.59;1565830;89;21110;-76
2022/07/31 04:39:14;;;;;;;3.05;2.85;;;;;;;16.53;70.13;100806.55;1608680;88;21110;-76
2022/07/31 04:41:41;;;;;;;4.50;2.90;;;;;;;16.58;70.14;100806.83;1578077;89;48336;-76
2022/07/31 04:44:08;;;;;;;4.45;2.52;;;;;;;16.57;70.14;100802.06;1615692;87;21073;-76
2022/07/31 04:46:34;;;;;;;5.83;3.20;;;;;;;16.59;70.17;100800.70;1618161;87;21074;-76
2022/07/31 04:49:01;;;;;;;5.60;3.15;;;;;;;16.60;70.21;100802.41;1608863;87;21106;-76
2022/07/31 04:51:27;;;;;;;5.03;3.50;;;;;;;16.61;70.28;100804.95;1613957;87;21104;-76
2022/07/31 04:53:53;;;;;;;9.53;3.60;;;;;;;16.66;70.27;100807.39;1605113;87;21162;-77
2022/07/31 04:56:32;;;;;;;3.50;3.20;;;;;;;16.68;70.28;100809.49;1612086;87;21039;-76
2022/07/31 04:59:02;;;;;;;6.58;3.22;;;;;;;16.70;70.29;100809.83;1566164;87;21061;-76
2022/07/31 05:01:29;;;;;;;6.72;3.58;;;;;;;16.74;70.32;100807.50;1548885;91;20992;-78
2022/07/31 05:03:55;;;;;;;5.53;2.72;;;;;;;16.75;70.30;100807.05;1525865;92;21156;-76
2022/07/31 05:06:22;;;;;;;2.90;2.70;;;;;;;16.77;70.31;100809.14;1551209;91;21136;-76
2022/07/31 05:08:48;;;;;;;5.78;3.35;;;;;;;16.78;70.36;100809.09;1550102;90;21139;-76
2022/07/31 05:11:24;;;;;;;4.53;3.20;;;;;;;16.78;70.34;100799.09;1551826;91;22213;-76
2022/07/31 05:13:57;;;;;;;4.03;2.90;;;;;;;16.78;70.36;100805.63;1541588;91;21202;-76
2022/07/31 05:16:26;;;;;;;9.50;3.30;;;;;;;16.81;70.43;100804.20;1538905;91;21178;-76
2022/07/31 05:18:53;;;;;;;4.50;2.55;;;;;;;16.83;70.42;100799.31;1549900;91;20956;-76
2022/07/31 05:21:21;;;;;;;;;;;;;;;16.86;70.45;100800.50;1524220;92;21170;-76
2022/07/31 05:23:48;;;;;;;3.52;2.70;;;;;;;16.90;70.61;100800.38;1548417;91;20886;-76
2022/07/31 05:26:17;;;;;;;3.98;2.67;;;;;;;16.93;70.50;100795.04;1558654;91;21625;-76
2022/07/31 05:28:45;;;;;;;3.98;2.77;;;;;;;16.99;70.52;100791.73;1547181;91;22069;-76
2022/07/31 05:31:11;;;;;;;7.87;3.35;;;;;;;17.06;70.49;100798.41;1532739;91;21103;-76
2022/07/31 05:33:38;;;;;;;;;;;;;;;17.11;70.51;100800.39;1540971;91;21156;-75
2022/07/31 05:36:05;;;;;;;;;;;;;;;17.17;70.69;100796.19;1550858;91;20231;-75
2022/07/31 05:38:32;;;;;;;6.03;2.52;;;;;;;17.24;70.68;100794.18;1539790;91;20188;-75
2022/07/31 05:40:58;;;;;;;6.17;2.10;;;;;;;17.29;70.52;100791.38;1522931;92;21157;-75
2022/07/31 05:43:25;;;;;;;4.42;2.50;;;;;;;17.34;70.49;100794.20;1545806;91;21288;-76
2022/07/31 05:45:51;;;;;;;4.95;2.87;;;;;;;17.41;70.51;100801.34;1531681;91;21167;-76
2022/07/31 05:48:18;;;;;;;8.15;2.90;;;;;;;17.48;70.52;100800.17;1538024;91;27443;-76
2022/07/31 05:50:47;;;;;;;2.87;2.17;;;;;;;17.54;70.48;100796.84;1514950;92;21137;-77
2022/07/31 05:53:14;;;;;;;5.60;2.33;;;;;;;17.57;70.43;100790.64;1535642;92;20955;-76
2022/07/31 05:55:47;;;;;;;3.15;2.30;;;;;;;17.60;70.50;100795.74;1519310;93;21418;-77
2022/07/31 05:58:15;;;;;;;3.80;2.60;;;;;;;17.68;70.55;100788.88;1532627;92;21137;-77
2022/07/31 06:00:43;;;;;;;4.00;2.52;;;;;;;17.75;70.51;100793.78;1523221;93;21162;-76
2022/07/31 06:03:14;;;;;;;4.83;2.40;;;;;;;17.81;70.49;100797.91;1533098;92;21510;-76
2022/07/31 06:05:40;;;;;;;4.60;2.20;;;;;;;17.86;70.45;100798.56;1537929;92;21011;-77
2022/07/31 06:08:08;;;;;;;8.30;2.50;;;;;;;17.93;70.50;100795.22;1535140;91;21178;-77
2022/07/31 06:10:39;;;;;;;4.62;2.30;;;;;;;18.02;70.53;100798.75;1532972;92;21109;-77
2022/07/31 06:13:06;;;;;;;3.47;2.20;;;;;;;18.12;70.53;100806.59;1533494;92;21540;-76
2022/07/31 06:15:32;;;;;;;3.80;2.70;;;;;;;18.22;70.50;100807.85;1541036;91;21028;-77
2022/07/31 06:17:59;;;;;;;3.35;2.08;;;;;;;18.33;70.46;100802.14;1534792;91;21059;-76
2022/07/31 06:20:26;;;;;;;2.98;2.20;;;;;;;18.42;70.42;100802.58;1540416;91;20980;-76
2022/07/31 06:22:53;;;;;;;2.58;2.35;;;;;;;18.57;70.40;100798.41;1537443;91;21004;-76
2022/07/31 06:25:20;;;;;;;;;;;;;;;18.72;70.44;100802.94;1542691;90;21055;-77
2022/07/31 06:27:46;;;;;;;6.03;2.80;;;;;;;18.91;70.45;100802.92;1537072;91;20181;-77
2022/07/31 06:30:14;;;;;;;9.28;2.40;;;;;;;19.11;70.36;100802.83;1538710;91;26502;-77
2022/07/31 06:32:40;;;;;;;3.67;2.50;;;;;;;19.28;70.24;100806.37;1535876;91;21113;-77
2022/07/31 06:35:09;;;;;;;5.10;2.20;;;;;;;19.43;70.17;100806.94;1538210;91;21452;-77
2022/07/31 06:37:35;;;;;;;2.52;1.90;;;;;;;19.60;70.25;100807.44;1544956;91;20997;-77
2022/07/31 06:40:02;;;;;;;3.60;2.45;;;;;;;19.80;70.19;100802.00;1532626;91;21020;-77
2022/07/31 06:42:28;;;;;;;3.05;2.00;;;;;;;19.96;70.07;100808.62;1540927;91;21052;-77
2022/07/31 06:44:55;;;;;;;2.00;1.80;;;;;;;20.10;70.03;100810.92;1545648;91;21012;-77
2022/07/31 06:47:24;;;;;;;8.80;2.10;;;;;;;20.24;69.97;100814.60;1545761;91;21418;-77
2022/07/31 06:49:52;;;;;;;7.15;2.00;;;;;;;20.41;69.99;100810.16;1543875;92;21101;-77
2022/07/31 06:52:19;;;;;;;7.35;1.92;;;;;;;20.65;69.91;100816.33;1547245;91;21131;-77
2022/07/31 06:54:46;;;;;;;6.60;2.22;;;;;;;20.83;69.89;100817.45;1544351;92;21118;-77
2022/07/31 06:57:13;;;;;;;2.65;2.22;;;;;;;21.01;69.83;100818.68;1545166;91;21110;-77
2022/07/31 06:59:39;;;;;;;;;;;;;;;21.18;69.64;100814.64;1546200;92;21145;-77
2022/07/31 07:02:06;;;;;;;4.28;2.33;;;;;;;21.31;69.15;100816.98;1549157;91;20735;-77
2022/07/31 07:04:33;;;;;;;;;;;;;;;21.44;69.61;100810.05;1549120;91;21082;-77
2022/07/31 07:06:59;;;;;;;3.25;1.52;;;;;;;21.66;69.07;100809.64;1544252;92;20195;-77
2022/07/31 07:09:26;;;;;;;3.92;1.80;;;;;;;21.80;69.19;100806.20;1554182;91;21074;-77
2022/07/31 07:11:52;;;;;;;5.10;1.80;;;;;;;21.91;69.22;100803.74;1545598;91;21121;-77
2022/07/31 07:14:18;;;;;;;7.35;1.82;;;;;;;22.09;69.12;100803.14;1543912;91;21120;-77
2022/07/31 07:16:45;;;;;;;3.95;2.00;;;;;;;22.19;68.93;100800.32;1542063;91;21523;-77
2022/07/31 07:19:11;;;;;;;3.70;2.37;;;;;;;22.25;68.85;100794.67;1550880;91;21330;-77
2022/07/31 07:21:38;;;;;;;2.17;1.60;;;;;;;22.30;68.80;100795.24;1548329;91;21113;-77
2022/07/31 07:24:05;;;;;;;3.98;1.85;;;;;;;22.43;68.72;100795.30;1544578;91;22171;-77
2022/07/31 07:26:34;;;;;;;1.60;1.47;;;;;;;22.54;68.59;100797.27;1548809;90;20904;-77
2022/07/31 07:29:01;;;;;;;5.62;2.10;;;;;;;22.68;68.53;100795.45;1546933;90;20998;-77
2022/07/31 07:31:28;;;;;;;2.30;2.10;;;;;;;22.84;68.33;100803.27;1551967;91;21099;-77
2022/07/31 07:33:55;;;;;;;2.47;1.85;;;;;;;22.93;68.30;100800.01;1547589;91;21074;-77
2022/07/31 07:36:21;;;;;;;;;;;;;;;23.11;68.04;100807.20;1547178;92;21062;-77
2022/07/31 07:38:48;;;;;;;3.15;1.75;;;;;;;23.26;67.61;100802.25;1544868;91;20193;-77
2022/07/31 07:41:14;;;;;;;2.10;1.62;;;;;;;23.54;67.92;100801.27;1546416;91;21093;-77
2022/07/31 07:43:41;;;;;;;3.40;1.62;;;;;;;23.74;67.73;100803.89;1545500;91;26092;-77
2022/07/31 07:46:07;;;;;;;1.92;1.70;;;;;;;23.91;67.60;100808.88;1545251;92;21362;-77
2022/07/31 07:48:34;;;;;;;2.08;1.87;;;;;;;24.11;67.46;100808.80;1544804;91;21122;-77
2022/07/31 07:51:00;;;;;;;2.47;1.75;;;;;;;24.21;67.22;100811.17;1544880;92;21118;-77
2022/07/31 07:53:27;;;;;;;4.60;1.98;;;;;;;24.41;67.12;100810.66;1548265;91;21370;-77
2022/07/31 07:55:53;;;;;;;3.65;1.77;;;;;;;24.63;66.79;100815.23;1544397;92;21695;-77
2022/07/31 07:58:20;;;;;;;7.92;1.77;;;;;;;24.78;66.66;100811.13;1527975;92;21093;-77
2022/07/31 08:00:47;;;;;;;3.35;1.65;;;;;;;24.86;66.28;100814.91;1544554;91;21183;-77
2022/07/31 08:03:13;;;;;;;7.85;2.10;;;;;;;24.99;66.13;100817.51;1549916;91;21012;-77
2022/07/31 08:05:39;;;;;;;4.67;1.55;;;;;;;25.16;65.77;100812.30;1544920;92;21607;-77
2022/07/31 08:08:06;;;;;;;2.72;1.80;;;;;;;25.23;65.54;100813.55;1545931;91;21090;-77
2022/07/31 08:10:32;;;;;;;4.83;1.30;;;;;;;25.35;65.31;100814.80;1544725;92;21102;-77
2022/07/31 08:12:59;;;;;;;2.02;1.82;;;;;;;25.50;65.12;100810.61;1550071;91;21094;-77
2022/07/31 08:15:28;;;;;;;4.60;1.57;;;;;;;25.71;64.87;100808.55;1548335;91;21322;-77
2022/07/31 08:17:53;;;;;;;3.02;1.45;;;;;;;25.93;64.58;100807.75;1544472;90;21202;-77
2022/07/31 08:20:20;;;;;;;3.87;1.07;;;;;;;26.13;64.15;100810.16;1544780;92;21079;-77
2022/07/31 08:22:46;;;;;;;4.85;1.45;;;;;;;26.30;63.99;100805.70;1544726;92;29034;-77
2022/07/31 08:25:13;;;;;;;4.58;1.35;;;;;;;26.51;63.72;100806.33;1545347;91;21399;-78
2022/07/31 08:27:39;;;;;;;1.52;1.12;;;;;;;26.75;63.41;100805.67;1555727;91;21554;-78
2022/07/31 08:30:08;;;;;;;1.85;1.47;;;;;;;27.02;63.20;100807.93;1546154;90;21669;-77
2022/07/31 08:32:35;;;;;;;6.75;1.12;;;;;;;27.24;62.76;100810.97;1545562;92;21078;-77
2022/07/31 08:35:01;;;;;;;2.60;1.40;;;;;;;27.49;62.56;100804.45;1544907;91;21107;-77
2022/07/31 08:37:29;;;;;;;4.53;1.50;;;;;;;27.70;62.18;100803.98;1544514;92;21126;-77
2022/07/31 08:39:56;;;;;;;1.90;1.45;;;;;;;27.95;61.74;100802.25;1545194;91;21617;-77
2022/07/31 08:42:23;;;;;;;;;;;;;;;27.98;61.21;100803.31;1561777;91;21376;-77
2022/07/31 08:44:50;;;;;;;4.75;1.62;;;;;;;28.00;60.82;100795.20;1551543;90;20188;-78
2022/07/31 08:47:17;;;;;;;5.25;1.65;;;;;;;28.12;61.32;100796.78;1544626;92;21050;-77
2022/07/31 08:49:47;;;;;;;5.60;1.60;;;;;;;28.33;61.02;100794.95;1547169;91;21498;-77
2022/07/31 08:52:24;;;;;;;3.98;1.62;;;;;;;28.48;60.61;100791.42;1549188;91;21102;-77
2022/07/31 08:54:52;;;;;;;2.52;1.22;;;;;;;28.46;60.28;100789.39;1544305;92;21130;-77
2022/07/31 08:57:19;;;;;;;2.47;1.20;;;;;;;28.52;60.09;100786.67;1544320;91;21082;-77
2022/07/31 08:59:51;;;;;;;2.00;1.27;;;;;;;28.37;59.38;100784.03;1544347;92;21602;-77
2022/07/31 09:02:15;;;;;;;4.35;1.20;;;;;;;28.09;59.11;100786.41;1542496;91;21153;-77
2022/07/31 09:04:41;;;;;;;2.08;1.32;;;;;;;27.88;58.63;100775.84;1524497;92;21173;-77
2022/07/31 09:07:15;;;;;;;3.33;1.22;;;;;;;27.57;58.46;100774.92;1543124;92;21101;-77
2022/07/31 09:09:46;;;;;;;5.35;1.35;;;;;;;27.28;58.11;100773.41;1544609;92;21062;-77
2022/07/31 09:12:13;;;;;;;4.30;1.20;;;;;;;26.97;57.64;100768.49;1548227;91;21010;-78
2022/07/31 09:14:43;;;;;;;3.77;1.60;;;;;;;26.56;57.11;100774.47;1538878;92;22221;-77
2022/07/31 09:17:14;;;;;;;1.30;0.93;;;;;;;26.28;56.84;100766.54;1545315;92;21578;-77
2022/07/31 09:19:42;;;;;;;1.35;0.98;;;;;;;26.05;56.58;100770.16;1544432;92;21155;-77
2022/07/31 09:22:23;;;;;;;3.70;1.20;;;;;;;25.84;56.24;100770.52;1544908;91;21178;-77
2022/07/31 09:24:52;;;;;;;2.65;0.98;;;;;;;25.59;55.78;100769.72;1543711;92;21078;-77
2022/07/31 09:27:19;;;;;;;1.80;1.20;;;;;;;25.33;55.39;100777.48;1542009;91;21149;-77
2022/07/31 09:29:48;;;;;;;7.12;1.07;;;;;;;25.16;55.34;100767.31;1551612;91;21119;-77
2022/07/31 09:32:18;;;;;;;1.05;0.80;;;;;;;25.03;55.01;100764.25;1544317;92;20998;-76
2022/07/31 09:34:46;;;;;;;5.50;1.10;;;;;;;24.91;54.79;100762.98;1544681;91;22215;-76
2022/07/31 09:37:20;;;;;;;1.45;1.00;;;;;;;24.80;54.61;100760.28;1544604;92;21667;-76
2022/07/31 09:39:53;;;;;;;1.85;0.90;;;;;;;24.71;54.36;100761.80;1544306;92;21534;-76
2022/07/31 09:42:21;;;;;;;4.00;0.80;;;;;;;24.58;54.20;100763.16;1548565;91;21055;-76
2022/07/31 09:44:50;;;;;;;5.72;1.12;;;;;;;24.47;53.87;100758.27;1542117;91;20955;-77
2022/07/31 09:47:25;;;;;;;1.98;0.85;;;;;;;24.32;53.74;100749.66;1522285;93;21117;-77
2022/07/31 09:49:57;;;;;;;5.85;0.88;;;;;;;24.22;53.42;100752.55;1565426;91;21144;-77
2022/07/31 09:52:27;;;;;;;3.00;1.32;;;;;;;24.11;53.26;100751.98;1567426;90;21135;-77
2022/07/31 09:55:14;;;;;;;6.17;1.98;;;;;;;24.06;53.09;100748.82;1565427;91;21728;-77
2022/07/31 09:57:53;;;;;;;2.27;0.88;;;;;;;24.00;52.78;100746.13;1566907;91;21003;-77
2022/07/31 10:00:21;;;;;;;0.98;0.90;;;;;;;23.95;52.53;100742.97;1565983;90;21100;-77
2022/07/31 10:02:49;;;;;;;2.45;0.65;;;;;;;23.88;52.33;100739.09;1577745;90;20918;-77
2022/07/31 10:05:16;;;;;;;3.70;0.93;;;;;;;23.88;52.28;100744.84;1576002;89;21040;-77
2022/07/31 10:07:45;;;;;;;1.32;0.68;;;;;;;23.92;51.87;100735.25;1565081;91;21136;-77
2022/07/31 10:10:14;;;;;;;3.72;0.65;;;;;;;23.95;51.79;100732.88;1546934;91;21470;-77
2022/07/31 10:12:44;;;;;;;2.72;0.78;;;;;;;23.95;50.81;100742.12;1565460;90;21036;-77
2022/07/31 10:15:13;;;;;;;0.62;0.50;;;;;;;23.90;50.28;100741.15;1564067;90;21156;-77
2022/07/31 10:17:43;;;;;;;2.50;0.80;;;;;;;23.91;50.85;100730.95;1560661;90;21195;-76
2022/07/31 10:20:16;;;;;;;1.00;0.50;;;;;;;23.90;50.71;100726.62;1523320;92;21010;-76
2022/07/31 10:22:49;;;;;;;1.57;0.70;;;;;;;23.92;50.61;100722.52;1565004;90;21064;-76
2022/07/31 10:25:27;;;;;;;0.85;0.70;;;;;;;23.96;50.50;100728.80;1571097;91;21081;-76
2022/07/31 10:27:55;;;;;;;3.45;0.90;;;;;;;24.02;50.36;100720.45;1522009;92;21067;-76
2022/07/31 10:30:23;;;;;;;2.85;0.80;;;;;;;24.05;49.87;100718.91;1564538;90;22284;-76
2022/07/31 10:32:49;;;;;;;1.50;0.80;;;;;;;24.08;49.70;100728.42;1551288;91;21148;-76
2022/07/31 10:35:17;;;;;;;1.47;0.68;;;;;;;24.08;49.65;100725.30;1564215;90;21104;-76
2022/07/31 10:38:22;;;;;;;1.57;0.60;;;;;;;24.12;48.91;100722.45;1523707;92;21011;-77
2022/07/31 10:41:02;;;;;;;5.60;0.78;;;;;;;24.10;49.20;100719.44;1569639;90;20918;-77
2022/07/31 10:43:45;;;;;;;2.37;0.70;;;;;;;24.16;49.17;100715.99;1566554;90;21026;-77
2022/07/31 10:46:12;;;;;;;3.12;0.82;;;;;;;24.18;48.72;100714.94;1524158;92;21472;-77
2022/07/31 10:48:51;;;;;;;0.70;0.60;;;;;;;24.18;48.53;100724.18;1567735;90;21396;-77
2022/07/31 10:51:17;;;;;;;0.62;0.62;;;;;;;24.19;48.26;100721.91;1565829;90;21059;-77
2022/07/31 10:54:01;;;;;;;3.12;0.98;;;;;;;24.23;48.12;100721.21;1563314;91;21715;-77
2022/07/31 10:56:41;;;;;;;0.93;0.70;;;;;;;24.26;47.85;100717.06;1564636;89;21612;-76
2022/07/31 10:59:08;;;;;;;1.27;0.80;;;;;;;24.29;47.76;100728.27;1525395;92;21661;-76
2022/07/31 11:01:47;;;;;;;1.75;0.57;;;;;;;24.37;47.81;100719.78;1565235;90;21092;-76
2022/07/31 11:04:27;;;;;;;2.15;0.90;;;;;;;24.47;47.71;100709.36;1567762;90;21845;-76
2022/07/31 11:06:54;;;;;;;1.57;0.80;;;;;;;24.54;47.67;100716.73;1522601;92;21526;-76
2022/07/31 11:09:22;;;;;;;3.37;0.70;;;;;;;24.60;47.44;100713.66;1525611;92;21595;-76
2022/07/31 11:11:49;;;;;;;3.92;0.90;;;;;;;24.64;47.26;100704.53;1547390;91;21010;-76
2022/07/31 11:14:15;;;;;;;2.12;0.70;;;;;;;24.69;47.26;100705.05;1522423;93;21049;-76
2022/07/31 11:16:54;;;;;;;0.75;0.65;;;;;;;24.77;47.11;100703.64;1553038;90;21124;-76
2022/07/31 11:19:22;;;;;;;3.20;0.90;;;;;;;24.84;46.94;100698.27;1546531;91;21584;-76
2022/07/31 11:21:49;;;;;;;6.37;0.70;;;;;;;24.87;46.55;100702.00;1522468;93;21098;-77
2022/07/31 11:24:21;;;;;;;1.92;0.65;;;;;;;24.91;46.57;100694.20;1565440;90;21634;-77
2022/07/31 11:26:57;;;;;;;1.22;0.80;;;;;;;24.93;46.55;100699.75;1557446;90;21636;-77
2022/07/31 11:29:38;;;;;;;3.80;1.00;;;;;;;24.85;46.46;100680.95;1565793;91;21582;-77
2022/07/31 11:32:16;;;;;;;2.77;0.60;;;;;;;24.96;43.21;100696.03;1562739;90;21115;-77
2022/07/31 11:34:50;;;;;;;1.87;0.60;;;;;;;24.87;45.90;100695.39;1565230;91;21542;-76